Uvalde Research's Hourly Summary for Friday, February 10, 2017
Hour Temp
(f)
RH
(%)
Solar Rad.
(MJ/m2)
Rainfall
(in)
Wind
(mph)
2/10/2017 12:00 AM 54 53 0 0 2.2
2/10/2017 1:00 AM 53 60 0 0 1.91
2/10/2017 2:00 AM 52 69 0 0 2
2/10/2017 3:00 AM 53 74 0 0 1.97
2/10/2017 4:00 AM 53 76 0 0 2.08
2/10/2017 5:00 AM 54 79 0 0 1.4
2/10/2017 6:00 AM 54 82 0 0 1.3
2/10/2017 7:00 AM 54 85 0 0 1.42
2/10/2017 8:00 AM 54 90 0.02 0 1.69
2/10/2017 9:00 AM 55 93 0.1 0 1.54
2/10/2017 10:00 AM 56 96 0.3 0 1.17
2/10/2017 11:00 AM 58 93 0.69 0 2.15
2/10/2017 12:00 PM 63 85 1.36 0 1.85
2/10/2017 1:00 PM 68 72 1.9 0 2.51
2/10/2017 2:00 PM 71 64 2.1 0 2.31
2/10/2017 3:00 PM 74 57 1.9 0 3.31
2/10/2017 4:00 PM 76 54 1.56 0 3.13
2/10/2017 5:00 PM 77 54 1 0 3.59
2/10/2017 6:00 PM 77 53 0.36 0 3.39
2/10/2017 7:00 PM 73 59 0.02 0 1.97
2/10/2017 8:00 PM 68 68 0 0 1.26
2/10/2017 9:00 PM 66 73 0 0 0.2
2/10/2017 10:00 PM 64 79 0 0 0
2/10/2017 11:00 PM 62 83 0 0 0
Data Summary 62 72 11.31 0.00 1.85